sensor_id;sensor_type;location;lat;lon;timestamp;P1;durP1;ratioP1;P2;durP2;ratioP2
45236;SDS011;30973;51.442;3.580;2023-02-28T00:01:24;4.70;;;1.90;;
45236;SDS011;30973;51.442;3.580;2023-02-28T00:03:51;4.70;;;2.50;;
45236;SDS011;30973;51.442;3.580;2023-02-28T00:06:18;5.13;;;2.17;;
45236;SDS011;30973;51.442;3.580;2023-02-28T00:08:45;5.20;;;2.42;;
45236;SDS011;30973;51.442;3.580;2023-02-28T00:11:12;4.65;;;2.30;;
45236;SDS011;30973;51.442;3.580;2023-02-28T00:13:40;5.20;;;2.50;;
45236;SDS011;30973;51.442;3.580;2023-02-28T00:16:08;4.63;;;2.25;;
45236;SDS011;30973;51.442;3.580;2023-02-28T00:18:36;3.45;;;1.77;;
45236;SDS011;30973;51.442;3.580;2023-02-28T00:21:03;5.00;;;2.13;;
45236;SDS011;30973;51.442;3.580;2023-02-28T00:23:29;3.13;;;1.90;;
45236;SDS011;30973;51.442;3.580;2023-02-28T00:25:58;2.90;;;2.00;;
45236;SDS011;30973;51.442;3.580;2023-02-28T00:28:25;2.75;;;1.83;;
45236;SDS011;30973;51.442;3.580;2023-02-28T00:30:51;3.40;;;2.08;;
45236;SDS011;30973;51.442;3.580;2023-02-28T00:33:18;4.72;;;1.92;;
45236;SDS011;30973;51.442;3.580;2023-02-28T00:35:46;4.32;;;1.92;;
45236;SDS011;30973;51.442;3.580;2023-02-28T00:38:13;5.05;;;2.10;;
45236;SDS011;30973;51.442;3.580;2023-02-28T00:40:42;4.70;;;2.22;;
45236;SDS011;30973;51.442;3.580;2023-02-28T00:43:10;5.05;;;2.25;;
45236;SDS011;30973;51.442;3.580;2023-02-28T00:45:36;4.25;;;2.30;;
45236;SDS011;30973;51.442;3.580;2023-02-28T00:48:03;3.35;;;2.10;;
45236;SDS011;30973;51.442;3.580;2023-02-28T00:50:31;5.40;;;2.15;;
45236;SDS011;30973;51.442;3.580;2023-02-28T00:53:00;6.40;;;2.40;;
45236;SDS011;30973;51.442;3.580;2023-02-28T00:55:29;3.85;;;2.00;;
45236;SDS011;30973;51.442;3.580;2023-02-28T00:57:55;3.53;;;2.13;;
45236;SDS011;30973;51.442;3.580;2023-02-28T01:00:22;4.18;;;2.22;;
45236;SDS011;30973;51.442;3.580;2023-02-28T01:02:49;4.22;;;2.22;;
45236;SDS011;30973;51.442;3.580;2023-02-28T01:05:15;3.80;;;1.98;;
45236;SDS011;30973;51.442;3.580;2023-02-28T01:07:44;4.93;;;2.20;;
45236;SDS011;30973;51.442;3.580;2023-02-28T01:10:10;3.20;;;2.10;;
45236;SDS011;30973;51.442;3.580;2023-02-28T01:12:37;4.25;;;2.45;;
45236;SDS011;30973;51.442;3.580;2023-02-28T01:15:04;3.58;;;2.22;;
45236;SDS011;30973;51.442;3.580;2023-02-28T01:17:30;5.15;;;2.13;;
45236;SDS011;30973;51.442;3.580;2023-02-28T01:20:00;4.85;;;2.20;;
45236;SDS011;30973;51.442;3.580;2023-02-28T01:22:27;4.85;;;2.60;;
45236;SDS011;30973;51.442;3.580;2023-02-28T01:24:53;5.97;;;2.35;;
45236;SDS011;30973;51.442;3.580;2023-02-28T01:27:20;3.88;;;2.17;;
45236;SDS011;30973;51.442;3.580;2023-02-28T01:29:47;3.22;;;1.98;;
45236;SDS011;30973;51.442;3.580;2023-02-28T01:32:14;6.18;;;2.10;;
45236;SDS011;30973;51.442;3.580;2023-02-28T01:34:41;5.13;;;2.22;;
45236;SDS011;30973;51.442;3.580;2023-02-28T01:37:08;4.05;;;2.03;;
45236;SDS011;30973;51.442;3.580;2023-02-28T01:39:34;6.20;;;2.38;;
45236;SDS011;30973;51.442;3.580;2023-02-28T01:42:02;4.90;;;2.47;;
45236;SDS011;30973;51.442;3.580;2023-02-28T01:47:14;4.65;;;2.55;;
45236;SDS011;30973;51.442;3.580;2023-02-28T01:49:41;4.50;;;2.33;;
45236;SDS011;30973;51.442;3.580;2023-02-28T01:52:08;4.25;;;2.00;;
45236;SDS011;30973;51.442;3.580;2023-02-28T01:54:41;5.70;;;2.20;;
45236;SDS011;30973;51.442;3.580;2023-02-28T01:57:14;3.85;;;2.10;;
45236;SDS011;30973;51.442;3.580;2023-02-28T01:59:42;2.90;;;2.03;;
45236;SDS011;30973;51.442;3.580;2023-02-28T02:02:13;5.40;;;2.83;;
45236;SDS011;30973;51.442;3.580;2023-02-28T02:04:41;6.07;;;2.33;;
45236;SDS011;30973;51.442;3.580;2023-02-28T02:07:11;4.78;;;2.33;;
45236;SDS011;30973;51.442;3.580;2023-02-28T02:09:43;3.80;;;2.38;;
45236;SDS011;30973;51.442;3.580;2023-02-28T02:12:25;3.40;;;2.30;;
45236;SDS011;30973;51.442;3.580;2023-02-28T02:15:00;3.60;;;2.58;;
45236;SDS011;30973;51.442;3.580;2023-02-28T02:17:31;3.75;;;2.83;;
45236;SDS011;30973;51.442;3.580;2023-02-28T02:33:04;5.38;;;2.20;;
45236;SDS011;30973;51.442;3.580;2023-02-28T02:38:38;4.00;;;2.50;;
45236;SDS011;30973;51.442;3.580;2023-02-28T02:46:29;3.78;;;2.38;;
45236;SDS011;30973;51.442;3.580;2023-02-28T02:48:55;5.10;;;2.63;;
45236;SDS011;30973;51.442;3.580;2023-02-28T02:51:23;6.57;;;3.00;;
45236;SDS011;30973;51.442;3.580;2023-02-28T02:53:52;3.22;;;2.40;;
45236;SDS011;30973;51.442;3.580;2023-02-28T02:56:22;4.88;;;2.72;;
45236;SDS011;30973;51.442;3.580;2023-02-28T02:58:49;4.35;;;2.90;;
45236;SDS011;30973;51.442;3.580;2023-02-28T03:01:21;4.55;;;2.85;;
45236;SDS011;30973;51.442;3.580;2023-02-28T03:03:55;6.65;;;3.10;;
45236;SDS011;30973;51.442;3.580;2023-02-28T03:06:23;5.13;;;3.00;;
45236;SDS011;30973;51.442;3.580;2023-02-28T03:08:49;5.35;;;3.15;;
45236;SDS011;30973;51.442;3.580;2023-02-28T03:11:16;6.55;;;3.53;;
45236;SDS011;30973;51.442;3.580;2023-02-28T03:18:47;5.35;;;3.00;;
45236;SDS011;30973;51.442;3.580;2023-02-28T03:21:26;5.57;;;3.15;;
45236;SDS011;30973;51.442;3.580;2023-02-28T03:24:01;5.30;;;3.35;;
45236;SDS011;30973;51.442;3.580;2023-02-28T03:26:30;4.10;;;2.97;;
45236;SDS011;30973;51.442;3.580;2023-02-28T03:32:05;6.65;;;3.22;;
45236;SDS011;30973;51.442;3.580;2023-02-28T03:34:38;5.00;;;3.55;;
45236;SDS011;30973;51.442;3.580;2023-02-28T03:37:08;6.05;;;3.35;;
45236;SDS011;30973;51.442;3.580;2023-02-28T03:39:37;6.07;;;3.40;;
45236;SDS011;30973;51.442;3.580;2023-02-28T03:42:07;5.47;;;3.40;;
45236;SDS011;30973;51.442;3.580;2023-02-28T03:44:36;4.82;;;3.53;;
45236;SDS011;30973;51.442;3.580;2023-02-28T03:47:06;6.00;;;3.20;;
45236;SDS011;30973;51.442;3.580;2023-02-28T03:49:36;5.03;;;3.17;;
45236;SDS011;30973;51.442;3.580;2023-02-28T03:52:04;8.25;;;3.80;;
45236;SDS011;30973;51.442;3.580;2023-02-28T03:54:33;6.82;;;3.45;;
45236;SDS011;30973;51.442;3.580;2023-02-28T03:57:05;6.20;;;3.63;;
45236;SDS011;30973;51.442;3.580;2023-02-28T03:59:39;4.50;;;3.45;;
45236;SDS011;30973;51.442;3.580;2023-02-28T04:02:08;5.38;;;3.97;;
45236;SDS011;30973;51.442;3.580;2023-02-28T04:04:35;6.78;;;3.58;;
45236;SDS011;30973;51.442;3.580;2023-02-28T04:07:07;6.53;;;3.78;;
45236;SDS011;30973;51.442;3.580;2023-02-28T04:09:34;5.80;;;3.40;;
45236;SDS011;30973;51.442;3.580;2023-02-28T04:12:00;6.65;;;3.60;;
45236;SDS011;30973;51.442;3.580;2023-02-28T04:14:30;6.40;;;3.63;;
45236;SDS011;30973;51.442;3.580;2023-02-28T04:16:57;5.18;;;3.60;;
45236;SDS011;30973;51.442;3.580;2023-02-28T04:19:23;6.35;;;3.42;;
45236;SDS011;30973;51.442;3.580;2023-02-28T04:21:51;7.63;;;3.70;;
45236;SDS011;30973;51.442;3.580;2023-02-28T04:24:19;6.13;;;3.50;;
45236;SDS011;30973;51.442;3.580;2023-02-28T04:26:47;6.03;;;3.80;;
45236;SDS011;30973;51.442;3.580;2023-02-28T04:29:18;9.00;;;3.13;;
45236;SDS011;30973;51.442;3.580;2023-02-28T04:31:45;5.45;;;3.30;;
45236;SDS011;30973;51.442;3.580;2023-02-28T04:34:12;6.97;;;3.40;;
45236;SDS011;30973;51.442;3.580;2023-02-28T04:36:39;6.22;;;3.25;;
45236;SDS011;30973;51.442;3.580;2023-02-28T04:39:05;5.45;;;3.35;;
45236;SDS011;30973;51.442;3.580;2023-02-28T04:41:32;4.78;;;3.20;;
45236;SDS011;30973;51.442;3.580;2023-02-28T04:43:59;7.53;;;3.40;;
45236;SDS011;30973;51.442;3.580;2023-02-28T04:46:26;6.75;;;3.28;;
45236;SDS011;30973;51.442;3.580;2023-02-28T04:48:58;7.32;;;3.25;;
45236;SDS011;30973;51.442;3.580;2023-02-28T04:51:25;5.20;;;2.85;;
45236;SDS011;30973;51.442;3.580;2023-02-28T04:53:52;5.93;;;3.40;;
45236;SDS011;30973;51.442;3.580;2023-02-28T04:56:19;7.13;;;3.40;;
45236;SDS011;30973;51.442;3.580;2023-02-28T04:58:46;5.32;;;3.20;;
45236;SDS011;30973;51.442;3.580;2023-02-28T05:03:42;4.85;;;3.15;;
45236;SDS011;30973;51.442;3.580;2023-02-28T05:06:10;5.22;;;3.47;;
45236;SDS011;30973;51.442;3.580;2023-02-28T05:08:37;8.30;;;4.03;;
45236;SDS011;30973;51.442;3.580;2023-02-28T05:11:07;6.63;;;3.30;;
45236;SDS011;30973;51.442;3.580;2023-02-28T05:13:38;7.82;;;3.50;;
45236;SDS011;30973;51.442;3.580;2023-02-28T05:16:04;5.70;;;3.60;;
45236;SDS011;30973;51.442;3.580;2023-02-28T05:18:31;5.15;;;3.35;;
45236;SDS011;30973;51.442;3.580;2023-02-28T05:20:59;4.80;;;3.42;;
45236;SDS011;30973;51.442;3.580;2023-02-28T05:23:30;6.82;;;3.78;;
45236;SDS011;30973;51.442;3.580;2023-02-28T05:25:56;5.38;;;3.45;;
45236;SDS011;30973;51.442;3.580;2023-02-28T05:28:23;6.05;;;3.78;;
45236;SDS011;30973;51.442;3.580;2023-02-28T05:30:50;8.82;;;3.50;;
45236;SDS011;30973;51.442;3.580;2023-02-28T05:33:16;6.25;;;3.20;;
45236;SDS011;30973;51.442;3.580;2023-02-28T05:35:43;7.00;;;3.50;;
45236;SDS011;30973;51.442;3.580;2023-02-28T05:38:10;7.72;;;3.70;;
45236;SDS011;30973;51.442;3.580;2023-02-28T05:40:38;6.32;;;3.58;;
45236;SDS011;30973;51.442;3.580;2023-02-28T05:43:04;6.03;;;3.10;;
45236;SDS011;30973;51.442;3.580;2023-02-28T05:45:31;6.85;;;3.63;;
45236;SDS011;30973;51.442;3.580;2023-02-28T05:47:58;6.90;;;3.80;;
45236;SDS011;30973;51.442;3.580;2023-02-28T05:50:25;5.57;;;3.53;;
45236;SDS011;30973;51.442;3.580;2023-02-28T05:52:51;7.03;;;3.92;;
45236;SDS011;30973;51.442;3.580;2023-02-28T05:55:18;6.97;;;3.70;;
45236;SDS011;30973;51.442;3.580;2023-02-28T05:57:45;7.55;;;4.00;;
45236;SDS011;30973;51.442;3.580;2023-02-28T06:00:12;6.10;;;3.85;;
45236;SDS011;30973;51.442;3.580;2023-02-28T06:02:41;7.05;;;4.43;;
45236;SDS011;30973;51.442;3.580;2023-02-28T06:05:12;6.68;;;4.15;;
45236;SDS011;30973;51.442;3.580;2023-02-28T06:07:39;9.50;;;4.07;;
45236;SDS011;30973;51.442;3.580;2023-02-28T06:10:06;5.93;;;3.80;;
45236;SDS011;30973;51.442;3.580;2023-02-28T06:12:33;6.90;;;4.45;;
45236;SDS011;30973;51.442;3.580;2023-02-28T06:14:59;8.32;;;4.53;;
45236;SDS011;30973;51.442;3.580;2023-02-28T06:17:26;6.18;;;4.13;;
45236;SDS011;30973;51.442;3.580;2023-02-28T06:19:53;6.55;;;4.50;;
45236;SDS011;30973;51.442;3.580;2023-02-28T06:22:19;7.72;;;4.85;;
45236;SDS011;30973;51.442;3.580;2023-02-28T06:24:46;7.55;;;4.38;;
45236;SDS011;30973;51.442;3.580;2023-02-28T06:27:13;5.72;;;4.03;;
45236;SDS011;30973;51.442;3.580;2023-02-28T06:29:43;9.70;;;4.28;;
45236;SDS011;30973;51.442;3.580;2023-02-28T06:32:10;5.78;;;3.90;;
45236;SDS011;30973;51.442;3.580;2023-02-28T06:34:37;7.82;;;4.65;;
45236;SDS011;30973;51.442;3.580;2023-02-28T06:37:04;6.65;;;3.88;;
45236;SDS011;30973;51.442;3.580;2023-02-28T06:39:31;8.68;;;4.70;;
45236;SDS011;30973;51.442;3.580;2023-02-28T06:41:58;7.40;;;4.60;;
45236;SDS011;30973;51.442;3.580;2023-02-28T06:44:25;6.15;;;4.35;;
45236;SDS011;30973;51.442;3.580;2023-02-28T06:46:51;9.10;;;4.78;;
45236;SDS011;30973;51.442;3.580;2023-02-28T06:49:18;8.43;;;4.82;;
45236;SDS011;30973;51.442;3.580;2023-02-28T06:51:44;8.52;;;4.63;;
45236;SDS011;30973;51.442;3.580;2023-02-28T06:54:12;6.78;;;4.38;;
45236;SDS011;30973;51.442;3.580;2023-02-28T06:56:39;9.30;;;4.45;;
45236;SDS011;30973;51.442;3.580;2023-02-28T06:59:05;9.13;;;5.28;;
45236;SDS011;30973;51.442;3.580;2023-02-28T07:01:32;8.25;;;5.68;;
45236;SDS011;30973;51.442;3.580;2023-02-28T07:03:59;7.80;;;5.10;;
45236;SDS011;30973;51.442;3.580;2023-02-28T07:06:29;9.00;;;5.57;;
45236;SDS011;30973;51.442;3.580;2023-02-28T07:08:55;8.40;;;5.78;;
45236;SDS011;30973;51.442;3.580;2023-02-28T07:11:23;7.93;;;5.03;;
45236;SDS011;30973;51.442;3.580;2023-02-28T07:13:52;11.02;;;4.80;;
45236;SDS011;30973;51.442;3.580;2023-02-28T07:16:19;6.40;;;3.72;;
45236;SDS011;30973;51.442;3.580;2023-02-28T07:18:46;7.10;;;3.15;;
45236;SDS011;30973;51.442;3.580;2023-02-28T07:21:13;5.88;;;3.80;;
45236;SDS011;30973;51.442;3.580;2023-02-28T07:23:39;5.38;;;3.25;;
45236;SDS011;30973;51.442;3.580;2023-02-28T07:26:07;7.20;;;3.78;;
45236;SDS011;30973;51.442;3.580;2023-02-28T07:28:34;6.28;;;3.35;;
45236;SDS011;30973;51.442;3.580;2023-02-28T07:31:06;6.75;;;3.47;;
45236;SDS011;30973;51.442;3.580;2023-02-28T07:33:33;6.43;;;3.03;;
45236;SDS011;30973;51.442;3.580;2023-02-28T07:36:01;8.60;;;3.30;;
45236;SDS011;30973;51.442;3.580;2023-02-28T07:38:28;4.95;;;3.03;;
45236;SDS011;30973;51.442;3.580;2023-02-28T07:40:54;6.10;;;3.00;;
45236;SDS011;30973;51.442;3.580;2023-02-28T07:43:21;8.15;;;3.10;;
45236;SDS011;30973;51.442;3.580;2023-02-28T07:45:48;6.90;;;2.92;;
45236;SDS011;30973;51.442;3.580;2023-02-28T07:48:15;4.90;;;3.00;;
45236;SDS011;30973;51.442;3.580;2023-02-28T07:50:41;7.30;;;3.25;;
45236;SDS011;30973;51.442;3.580;2023-02-28T07:53:08;7.32;;;2.92;;
45236;SDS011;30973;51.442;3.580;2023-02-28T07:55:35;6.10;;;2.70;;
45236;SDS011;30973;51.442;3.580;2023-02-28T07:58:01;4.07;;;2.38;;
45236;SDS011;30973;51.442;3.580;2023-02-28T08:00:28;6.45;;;3.33;;
45236;SDS011;30973;51.442;3.580;2023-02-28T08:02:55;6.90;;;2.88;;
45236;SDS011;30973;51.442;3.580;2023-02-28T08:05:22;5.03;;;2.70;;
45236;SDS011;30973;51.442;3.580;2023-02-28T08:07:49;6.03;;;2.72;;
45236;SDS011;30973;51.442;3.580;2023-02-28T08:10:15;4.63;;;2.97;;
45236;SDS011;30973;51.442;3.580;2023-02-28T08:12:42;6.88;;;3.40;;
45236;SDS011;30973;51.442;3.580;2023-02-28T08:15:09;8.63;;;3.33;;
45236;SDS011;30973;51.442;3.580;2023-02-28T08:17:35;8.13;;;3.05;;
45236;SDS011;30973;51.442;3.580;2023-02-28T08:20:02;6.78;;;2.95;;
45236;SDS011;30973;51.442;3.580;2023-02-28T08:22:30;7.07;;;2.60;;
45236;SDS011;30973;51.442;3.580;2023-02-28T08:24:57;4.07;;;1.80;;
45236;SDS011;30973;51.442;3.580;2023-02-28T08:27:23;4.57;;;1.88;;
45236;SDS011;30973;51.442;3.580;2023-02-28T08:29:50;4.68;;;2.40;;
45236;SDS011;30973;51.442;3.580;2023-02-28T08:32:16;5.30;;;2.80;;
45236;SDS011;30973;51.442;3.580;2023-02-28T08:34:55;8.75;;;3.25;;
45236;SDS011;30973;51.442;3.580;2023-02-28T08:37:21;8.25;;;2.80;;
45236;SDS011;30973;51.442;3.580;2023-02-28T08:39:49;5.97;;;2.58;;
45236;SDS011;30973;51.442;3.580;2023-02-28T08:42:16;4.40;;;2.63;;
45236;SDS011;30973;51.442;3.580;2023-02-28T08:44:42;8.07;;;2.70;;
45236;SDS011;30973;51.442;3.580;2023-02-28T08:47:09;6.95;;;2.70;;
45236;SDS011;30973;51.442;3.580;2023-02-28T08:49:36;5.35;;;2.63;;
45236;SDS011;30973;51.442;3.580;2023-02-28T08:52:04;4.05;;;2.30;;
45236;SDS011;30973;51.442;3.580;2023-02-28T08:54:30;6.82;;;2.45;;
45236;SDS011;30973;51.442;3.580;2023-02-28T08:56:59;6.60;;;2.70;;
45236;SDS011;30973;51.442;3.580;2023-02-28T08:59:29;5.05;;;2.50;;
45236;SDS011;30973;51.442;3.580;2023-02-28T09:01:58;5.82;;;2.85;;
45236;SDS011;30973;51.442;3.580;2023-02-28T09:04:25;7.30;;;3.17;;
45236;SDS011;30973;51.442;3.580;2023-02-28T09:06:52;5.45;;;2.97;;
45236;SDS011;30973;51.442;3.580;2023-02-28T09:09:20;4.88;;;2.38;;
45236;SDS011;30973;51.442;3.580;2023-02-28T09:11:46;7.82;;;3.00;;
45236;SDS011;30973;51.442;3.580;2023-02-28T09:14:13;4.05;;;1.88;;
45236;SDS011;30973;51.442;3.580;2023-02-28T09:16:40;3.97;;;1.95;;
45236;SDS011;30973;51.442;3.580;2023-02-28T09:19:09;4.05;;;1.88;;
45236;SDS011;30973;51.442;3.580;2023-02-28T09:21:36;3.33;;;1.67;;
45236;SDS011;30973;51.442;3.580;2023-02-28T09:24:03;2.85;;;1.80;;
45236;SDS011;30973;51.442;3.580;2023-02-28T09:26:29;4.55;;;1.80;;
45236;SDS011;30973;51.442;3.580;2023-02-28T09:29:08;3.85;;;1.63;;
45236;SDS011;30973;51.442;3.580;2023-02-28T09:31:35;4.32;;;2.15;;
45236;SDS011;30973;51.442;3.580;2023-02-28T09:34:03;4.22;;;1.98;;
45236;SDS011;30973;51.442;3.580;2023-02-28T09:36:30;2.88;;;2.05;;
45236;SDS011;30973;51.442;3.580;2023-02-28T09:39:09;4.57;;;1.77;;
45236;SDS011;30973;51.442;3.580;2023-02-28T09:41:45;7.78;;;2.22;;
45236;SDS011;30973;51.442;3.580;2023-02-28T09:44:22;6.15;;;2.45;;
45236;SDS011;30973;51.442;3.580;2023-02-28T09:46:53;4.25;;;2.08;;
45236;SDS011;30973;51.442;3.580;2023-02-28T09:49:22;3.78;;;1.90;;
45236;SDS011;30973;51.442;3.580;2023-02-28T09:52:03;3.88;;;1.63;;
45236;SDS011;30973;51.442;3.580;2023-02-28T09:54:31;5.85;;;2.03;;
45236;SDS011;30973;51.442;3.580;2023-02-28T09:56:59;4.07;;;2.10;;
45236;SDS011;30973;51.442;3.580;2023-02-28T10:04:50;6.32;;;2.03;;
45236;SDS011;30973;51.442;3.580;2023-02-28T10:10:14;3.13;;;1.85;;
45236;SDS011;30973;51.442;3.580;2023-02-28T10:12:43;2.70;;;1.42;;
45236;SDS011;30973;51.442;3.580;2023-02-28T10:15:14;4.43;;;1.98;;
45236;SDS011;30973;51.442;3.580;2023-02-28T10:17:42;4.07;;;1.83;;
45236;SDS011;30973;51.442;3.580;2023-02-28T10:20:26;6.15;;;1.60;;
45236;SDS011;30973;51.442;3.580;2023-02-28T10:28:15;2.70;;;1.80;;
45236;SDS011;30973;51.442;3.580;2023-02-28T10:30:42;3.53;;;1.75;;
45236;SDS011;30973;51.442;3.580;2023-02-28T10:33:15;4.55;;;1.75;;
45236;SDS011;30973;51.442;3.580;2023-02-28T10:35:46;4.30;;;2.00;;
45236;SDS011;30973;51.442;3.580;2023-02-28T10:38:21;2.72;;;1.40;;
45236;SDS011;30973;51.442;3.580;2023-02-28T10:40:48;2.25;;;1.60;;
45236;SDS011;30973;51.442;3.580;2023-02-28T10:50:53;8.30;;;1.95;;
45236;SDS011;30973;51.442;3.580;2023-02-28T10:58:23;5.05;;;1.65;;
45236;SDS011;30973;51.442;3.580;2023-02-28T11:00:50;3.13;;;1.60;;
45236;SDS011;30973;51.442;3.580;2023-02-28T11:03:25;5.60;;;2.45;;
45236;SDS011;30973;51.442;3.580;2023-02-28T11:05:52;4.78;;;2.00;;
45236;SDS011;30973;51.442;3.580;2023-02-28T11:08:18;2.42;;;1.80;;
45236;SDS011;30973;51.442;3.580;2023-02-28T11:10:46;4.28;;;1.73;;
45236;SDS011;30973;51.442;3.580;2023-02-28T11:13:17;2.63;;;1.70;;
45236;SDS011;30973;51.442;3.580;2023-02-28T11:15:49;5.97;;;2.05;;
45236;SDS011;30973;51.442;3.580;2023-02-28T11:20:57;3.80;;;1.80;;
45236;SDS011;30973;51.442;3.580;2023-02-28T11:23:25;3.20;;;2.03;;
45236;SDS011;30973;51.442;3.580;2023-02-28T11:25:53;3.38;;;1.90;;
45236;SDS011;30973;51.442;3.580;2023-02-28T11:36:03;2.65;;;1.80;;
45236;SDS011;30973;51.442;3.580;2023-02-28T11:38:31;3.92;;;1.90;;
45236;SDS011;30973;51.442;3.580;2023-02-28T11:46:20;2.58;;;1.55;;
45236;SDS011;30973;51.442;3.580;2023-02-28T11:56:38;2.83;;;1.75;;
45236;SDS011;30973;51.442;3.580;2023-02-28T12:27:26;2.78;;;1.80;;
45236;SDS011;30973;51.442;3.580;2023-02-28T12:29:59;2.70;;;1.73;;
45236;SDS011;30973;51.442;3.580;2023-02-28T12:32:38;3.67;;;2.10;;
45236;SDS011;30973;51.442;3.580;2023-02-28T12:37:36;3.47;;;1.85;;
45236;SDS011;30973;51.442;3.580;2023-02-28T12:40:05;3.08;;;2.00;;
45236;SDS011;30973;51.442;3.580;2023-02-28T12:42:42;3.15;;;1.92;;
45236;SDS011;30973;51.442;3.580;2023-02-28T12:45:12;3.35;;;2.10;;
45236;SDS011;30973;51.442;3.580;2023-02-28T12:47:40;3.90;;;2.03;;
45236;SDS011;30973;51.442;3.580;2023-02-28T12:50:09;3.28;;;2.08;;
45236;SDS011;30973;51.442;3.580;2023-02-28T12:58:26;3.22;;;2.28;;
45236;SDS011;30973;51.442;3.580;2023-02-28T13:10:53;3.95;;;2.10;;
45236;SDS011;30973;51.442;3.580;2023-02-28T13:13:21;5.00;;;2.53;;
45236;SDS011;30973;51.442;3.580;2023-02-28T13:18:31;3.28;;;1.88;;
45236;SDS011;30973;51.442;3.580;2023-02-28T13:20:59;3.78;;;2.40;;
45236;SDS011;30973;51.442;3.580;2023-02-28T13:23:37;2.53;;;1.95;;
45236;SDS011;30973;51.442;3.580;2023-02-28T13:26:04;3.35;;;2.25;;
45236;SDS011;30973;51.442;3.580;2023-02-28T13:31:16;3.13;;;1.80;;
45236;SDS011;30973;51.442;3.580;2023-02-28T13:38:41;2.88;;;1.80;;
45236;SDS011;30973;51.442;3.580;2023-02-28T13:46:25;3.13;;;2.03;;
45236;SDS011;30973;51.442;3.580;2023-02-28T13:48:51;4.40;;;1.92;;
45236;SDS011;30973;51.442;3.580;2023-02-28T13:54:23;3.25;;;2.00;;
45236;SDS011;30973;51.442;3.580;2023-02-28T13:56:57;3.65;;;2.30;;
45236;SDS011;30973;51.442;3.580;2023-02-28T14:04:54;3.35;;;2.03;;
45236;SDS011;30973;51.442;3.580;2023-02-28T14:07:28;8.48;;;4.38;;
45236;SDS011;30973;51.442;3.580;2023-02-28T14:10:03;5.93;;;3.60;;
45236;SDS011;30973;51.442;3.580;2023-02-28T14:18:03;5.00;;;2.00;;
45236;SDS011;30973;51.442;3.580;2023-02-28T14:20:31;2.65;;;1.42;;
45236;SDS011;30973;51.442;3.580;2023-02-28T14:23:06;2.78;;;1.83;;
45236;SDS011;30973;51.442;3.580;2023-02-28T14:25:39;3.05;;;1.70;;
45236;SDS011;30973;51.442;3.580;2023-02-28T14:28:31;2.65;;;1.70;;
45236;SDS011;30973;51.442;3.580;2023-02-28T14:36:16;3.28;;;1.90;;
45236;SDS011;30973;51.442;3.580;2023-02-28T14:38:55;2.97;;;1.80;;
45236;SDS011;30973;51.442;3.580;2023-02-28T14:41:23;2.67;;;1.65;;
45236;SDS011;30973;51.442;3.580;2023-02-28T14:43:54;2.83;;;1.90;;
45236;SDS011;30973;51.442;3.580;2023-02-28T14:46:22;2.70;;;1.90;;
45236;SDS011;30973;51.442;3.580;2023-02-28T14:48:50;5.57;;;1.73;;
45236;SDS011;30973;51.442;3.580;2023-02-28T14:51:21;5.38;;;1.88;;
45236;SDS011;30973;51.442;3.580;2023-02-28T14:53:52;2.47;;;1.42;;
45236;SDS011;30973;51.442;3.580;2023-02-28T14:56:23;5.35;;;2.05;;
45236;SDS011;30973;51.442;3.580;2023-02-28T14:58:52;3.88;;;1.70;;
45236;SDS011;30973;51.442;3.580;2023-02-28T15:01:20;3.15;;;1.80;;
45236;SDS011;30973;51.442;3.580;2023-02-28T15:03:48;4.25;;;2.10;;
45236;SDS011;30973;51.442;3.580;2023-02-28T15:06:16;2.45;;;1.70;;
45236;SDS011;30973;51.442;3.580;2023-02-28T15:08:44;3.25;;;1.85;;
45236;SDS011;30973;51.442;3.580;2023-02-28T15:11:15;2.60;;;1.75;;
45236;SDS011;30973;51.442;3.580;2023-02-28T15:13:47;2.47;;;1.83;;
45236;SDS011;30973;51.442;3.580;2023-02-28T15:16:29;2.70;;;1.90;;
45236;SDS011;30973;51.442;3.580;2023-02-28T15:18:59;4.25;;;1.70;;
45236;SDS011;30973;51.442;3.580;2023-02-28T15:21:30;3.35;;;1.92;;
45236;SDS011;30973;51.442;3.580;2023-02-28T15:24:03;3.10;;;1.80;;
45236;SDS011;30973;51.442;3.580;2023-02-28T15:26:37;2.95;;;2.05;;
45236;SDS011;30973;51.442;3.580;2023-02-28T15:29:10;3.05;;;2.00;;
45236;SDS011;30973;51.442;3.580;2023-02-28T15:31:45;2.88;;;2.00;;
45236;SDS011;30973;51.442;3.580;2023-02-28T15:34:44;3.33;;;1.88;;
45236;SDS011;30973;51.442;3.580;2023-02-28T15:37:30;3.25;;;2.10;;
45236;SDS011;30973;51.442;3.580;2023-02-28T15:42:38;2.95;;;1.83;;
45236;SDS011;30973;51.442;3.580;2023-02-28T15:45:05;3.78;;;1.85;;
45236;SDS011;30973;51.442;3.580;2023-02-28T15:47:32;5.00;;;1.90;;
45236;SDS011;30973;51.442;3.580;2023-02-28T15:50:05;2.40;;;1.90;;
45236;SDS011;30973;51.442;3.580;2023-02-28T15:52:34;3.10;;;1.90;;
45236;SDS011;30973;51.442;3.580;2023-02-28T15:55:10;3.72;;;2.00;;
45236;SDS011;30973;51.442;3.580;2023-02-28T15:57:39;5.22;;;2.22;;
45236;SDS011;30973;51.442;3.580;2023-02-28T16:00:08;2.88;;;2.15;;
45236;SDS011;30973;51.442;3.580;2023-02-28T16:02:37;3.10;;;1.95;;
45236;SDS011;30973;51.442;3.580;2023-02-28T16:07:34;3.58;;;2.60;;
45236;SDS011;30973;51.442;3.580;2023-02-28T16:10:03;5.25;;;2.10;;
45236;SDS011;30973;51.442;3.580;2023-02-28T16:12:31;3.28;;;1.92;;
45236;SDS011;30973;51.442;3.580;2023-02-28T16:14:59;4.93;;;2.05;;
45236;SDS011;30973;51.442;3.580;2023-02-28T16:17:31;2.83;;;2.08;;
45236;SDS011;30973;51.442;3.580;2023-02-28T16:19:58;3.47;;;2.00;;
45236;SDS011;30973;51.442;3.580;2023-02-28T16:22:25;2.45;;;1.88;;
45236;SDS011;30973;51.442;3.580;2023-02-28T16:24:52;2.55;;;1.92;;
45236;SDS011;30973;51.442;3.580;2023-02-28T16:27:32;2.95;;;2.00;;
45236;SDS011;30973;51.442;3.580;2023-02-28T16:30:02;3.83;;;2.10;;
45236;SDS011;30973;51.442;3.580;2023-02-28T16:32:29;3.30;;;2.22;;
45236;SDS011;30973;51.442;3.580;2023-02-28T16:34:57;4.00;;;2.15;;
45236;SDS011;30973;51.442;3.580;2023-02-28T16:37:23;2.70;;;1.90;;
45236;SDS011;30973;51.442;3.580;2023-02-28T16:39:50;3.55;;;1.77;;
45236;SDS011;30973;51.442;3.580;2023-02-28T16:42:27;4.50;;;2.75;;
45236;SDS011;30973;51.442;3.580;2023-02-28T16:44:55;3.33;;;2.20;;
45236;SDS011;30973;51.442;3.580;2023-02-28T16:47:22;4.22;;;2.30;;
45236;SDS011;30973;51.442;3.580;2023-02-28T16:49:49;3.35;;;2.17;;
45236;SDS011;30973;51.442;3.580;2023-02-28T16:52:15;6.68;;;2.15;;
45236;SDS011;30973;51.442;3.580;2023-02-28T16:54:42;2.63;;;2.00;;
45236;SDS011;30973;51.442;3.580;2023-02-28T16:57:17;7.50;;;2.05;;
45236;SDS011;30973;51.442;3.580;2023-02-28T16:59:44;3.42;;;2.10;;
45236;SDS011;30973;51.442;3.580;2023-02-28T17:02:14;2.63;;;2.00;;
45236;SDS011;30973;51.442;3.580;2023-02-28T17:04:43;4.20;;;2.55;;
45236;SDS011;30973;51.442;3.580;2023-02-28T17:07:13;3.05;;;2.30;;
45236;SDS011;30973;51.442;3.580;2023-02-28T17:09:40;4.50;;;2.70;;
45236;SDS011;30973;51.442;3.580;2023-02-28T17:12:09;2.60;;;1.98;;
45236;SDS011;30973;51.442;3.580;2023-02-28T17:14:37;2.58;;;2.00;;
45236;SDS011;30973;51.442;3.580;2023-02-28T17:17:04;3.13;;;2.28;;
45236;SDS011;30973;51.442;3.580;2023-02-28T17:19:31;3.00;;;2.20;;
45236;SDS011;30973;51.442;3.580;2023-02-28T17:21:58;3.63;;;2.13;;
45236;SDS011;30973;51.442;3.580;2023-02-28T17:24:24;3.47;;;2.30;;
45236;SDS011;30973;51.442;3.580;2023-02-28T17:26:57;3.85;;;2.40;;
45236;SDS011;30973;51.442;3.580;2023-02-28T17:29:23;3.10;;;2.00;;
45236;SDS011;30973;51.442;3.580;2023-02-28T17:31:51;3.35;;;2.63;;
45236;SDS011;30973;51.442;3.580;2023-02-28T17:34:18;3.15;;;2.20;;
45236;SDS011;30973;51.442;3.580;2023-02-28T17:36:46;4.65;;;2.20;;
45236;SDS011;30973;51.442;3.580;2023-02-28T17:39:13;2.75;;;2.13;;
45236;SDS011;30973;51.442;3.580;2023-02-28T17:41:50;3.50;;;2.35;;
45236;SDS011;30973;51.442;3.580;2023-02-28T17:44:18;4.70;;;2.20;;
45236;SDS011;30973;51.442;3.580;2023-02-28T17:46:45;4.22;;;2.22;;
45236;SDS011;30973;51.442;3.580;2023-02-28T17:49:12;4.13;;;2.33;;